Portada
METAR-TAF:

METAR-TAF

Aeroports :

Scilly, Anglaterra

latitud: 49-55N, longitud: 006-18W, altitud: 31 m

Observació

L'informe es va fer fa 23 minuts, a les 06:20 UTC
Vent 19 kt del Est/Nord-Est
Temperatura 15°C
Humitat 82%
Pressió 1018 hPa
Visibilitat 10 km o més
Escasses núvols a una alçada de 1200 ft

METAR: EGHE 180620Z 06019KT 9999 FEW012 15/12 Q1018

Hora: 07:43 (06:43 UTC)

Pronòstic

L'informe es va fer fa 13 hores i 50 minuts, a les 16:53 UTC
Pronòstic vàlid del 17 a les 18 UTC al 18 a les 03 UTC
Vent 20 kt del Est
Visibilitat 10 km o més
sense núvols per sota de 1500 mi sense presència de cumulonimbus.
Probabilitat 30% :
Temporalment
l' 17 a les 18 UTC al 18 a les 03 UTC
Vent 25 kt del Est amb ràfegues de 35 kt

TAF: EGHE 171653Z 1718/1803 09020KT CAVOK PROB30 TEMPO 1718/1803 09025G35KT

Observacions i pronòstics meteorològics de més de 4000 aeroports (METAR i TAF).

Les estacions disponibles són els punts grocs i vermells al mapa.

Posi el ratolí al punt desitjat per veure el nom de l'estació.

Feu clic per veure les observacions i els pronòstics meteorològics.

Per canviar el mapa: feu clic els botons verds amb una creu de color negre per apropar; al botó verd amb un guió per allunyar la imatge; o en les fletxes verdes per a mapes adjacents.


METAR-TAF: